sensor_id;sensor_type;location;lat;lon;timestamp;P1;durP1;ratioP1;P2;durP2;ratioP2
77214;SDS011;66210;53.282;9.864;2023-09-19T00:00:44;4.05;;;1.90;;
77214;SDS011;66210;53.282;9.864;2023-09-19T00:03:13;4.97;;;2.10;;
77214;SDS011;66210;53.282;9.864;2023-09-19T00:05:41;3.70;;;2.03;;
77214;SDS011;66210;53.282;9.864;2023-09-19T00:08:10;4.18;;;2.25;;
77214;SDS011;66210;53.282;9.864;2023-09-19T00:10:40;4.72;;;2.08;;
77214;SDS011;66210;53.282;9.864;2023-09-19T00:13:08;5.13;;;1.88;;
77214;SDS011;66210;53.282;9.864;2023-09-19T00:15:40;3.53;;;2.08;;
77214;SDS011;66210;53.282;9.864;2023-09-19T00:18:08;3.33;;;2.30;;
77214;SDS011;66210;53.282;9.864;2023-09-19T00:20:36;3.72;;;2.20;;
77214;SDS011;66210;53.282;9.864;2023-09-19T00:23:03;4.40;;;2.30;;
77214;SDS011;66210;53.282;9.864;2023-09-19T00:25:35;4.10;;;2.00;;
77214;SDS011;66210;53.282;9.864;2023-09-19T00:28:04;3.55;;;2.25;;
77214;SDS011;66210;53.282;9.864;2023-09-19T00:30:33;5.25;;;2.40;;
77214;SDS011;66210;53.282;9.864;2023-09-19T00:33:00;6.32;;;2.72;;
77214;SDS011;66210;53.282;9.864;2023-09-19T00:35:32;3.88;;;2.55;;
77214;SDS011;66210;53.282;9.864;2023-09-19T00:37:59;3.92;;;2.40;;
77214;SDS011;66210;53.282;9.864;2023-09-19T00:40:26;3.25;;;2.20;;
77214;SDS011;66210;53.282;9.864;2023-09-19T00:42:53;5.70;;;2.33;;
77214;SDS011;66210;53.282;9.864;2023-09-19T00:45:27;3.47;;;2.20;;
77214;SDS011;66210;53.282;9.864;2023-09-19T00:47:55;4.13;;;2.80;;
77214;SDS011;66210;53.282;9.864;2023-09-19T00:50:24;5.03;;;2.60;;
77214;SDS011;66210;53.282;9.864;2023-09-19T00:52:54;4.35;;;2.50;;
77214;SDS011;66210;53.282;9.864;2023-09-19T00:55:23;5.80;;;2.60;;
77214;SDS011;66210;53.282;9.864;2023-09-19T00:57:51;5.72;;;2.75;;
77214;SDS011;66210;53.282;9.864;2023-09-19T01:00:19;7.45;;;2.53;;
77214;SDS011;66210;53.282;9.864;2023-09-19T01:02:47;5.97;;;2.92;;
77214;SDS011;66210;53.282;9.864;2023-09-19T01:05:15;9.52;;;3.28;;
77214;SDS011;66210;53.282;9.864;2023-09-19T01:07:43;5.13;;;2.65;;
77214;SDS011;66210;53.282;9.864;2023-09-19T01:10:16;6.05;;;3.30;;
77214;SDS011;66210;53.282;9.864;2023-09-19T01:12:53;9.38;;;2.67;;
77214;SDS011;66210;53.282;9.864;2023-09-19T01:15:36;4.00;;;2.50;;
77214;SDS011;66210;53.282;9.864;2023-09-19T01:18:16;8.20;;;2.88;;
77214;SDS011;66210;53.282;9.864;2023-09-19T01:20:53;6.93;;;3.10;;
77214;SDS011;66210;53.282;9.864;2023-09-19T01:29:39;7.80;;;3.00;;
77214;SDS011;66210;53.282;9.864;2023-09-19T01:32:11;8.85;;;3.20;;
77214;SDS011;66210;53.282;9.864;2023-09-19T01:34:46;7.15;;;3.17;;
77214;SDS011;66210;53.282;9.864;2023-09-19T01:39:59;7.28;;;2.97;;
77214;SDS011;66210;53.282;9.864;2023-09-19T01:42:37;8.90;;;2.90;;
77214;SDS011;66210;53.282;9.864;2023-09-19T01:45:13;6.35;;;2.85;;
77214;SDS011;66210;53.282;9.864;2023-09-19T01:47:51;8.38;;;2.70;;
77214;SDS011;66210;53.282;9.864;2023-09-19T01:50:29;4.45;;;3.03;;
77214;SDS011;66210;53.282;9.864;2023-09-19T01:53:05;5.95;;;2.78;;
77214;SDS011;66210;53.282;9.864;2023-09-19T01:55:37;6.90;;;2.95;;
77214;SDS011;66210;53.282;9.864;2023-09-19T02:00:49;11.48;;;3.45;;
77214;SDS011;66210;53.282;9.864;2023-09-19T02:03:20;4.60;;;2.90;;
77214;SDS011;66210;53.282;9.864;2023-09-19T02:05:51;9.55;;;3.08;;
77214;SDS011;66210;53.282;9.864;2023-09-19T02:08:20;9.45;;;3.20;;
77214;SDS011;66210;53.282;9.864;2023-09-19T02:10:52;9.90;;;3.58;;
77214;SDS011;66210;53.282;9.864;2023-09-19T02:13:19;7.00;;;2.90;;
77214;SDS011;66210;53.282;9.864;2023-09-19T02:15:48;6.07;;;3.00;;
77214;SDS011;66210;53.282;9.864;2023-09-19T02:18:15;6.07;;;3.17;;
77214;SDS011;66210;53.282;9.864;2023-09-19T02:20:42;6.70;;;2.88;;
77214;SDS011;66210;53.282;9.864;2023-09-19T02:23:09;7.00;;;3.38;;
77214;SDS011;66210;53.282;9.864;2023-09-19T02:25:37;7.65;;;3.25;;
77214;SDS011;66210;53.282;9.864;2023-09-19T02:28:04;4.50;;;2.70;;
77214;SDS011;66210;53.282;9.864;2023-09-19T02:30:32;8.38;;;3.33;;
77214;SDS011;66210;53.282;9.864;2023-09-19T02:32:59;8.43;;;2.95;;
77214;SDS011;66210;53.282;9.864;2023-09-19T02:35:28;7.65;;;3.15;;
77214;SDS011;66210;53.282;9.864;2023-09-19T02:37:59;13.60;;;2.90;;
77214;SDS011;66210;53.282;9.864;2023-09-19T02:40:25;7.53;;;2.75;;
77214;SDS011;66210;53.282;9.864;2023-09-19T02:42:53;4.22;;;2.90;;
77214;SDS011;66210;53.282;9.864;2023-09-19T02:45:21;5.18;;;2.78;;
77214;SDS011;66210;53.282;9.864;2023-09-19T02:47:49;6.95;;;3.13;;
77214;SDS011;66210;53.282;9.864;2023-09-19T02:50:16;5.45;;;2.72;;
77214;SDS011;66210;53.282;9.864;2023-09-19T02:52:43;9.63;;;2.72;;
77214;SDS011;66210;53.282;9.864;2023-09-19T02:55:11;8.20;;;2.60;;
77214;SDS011;66210;53.282;9.864;2023-09-19T02:57:40;5.25;;;2.58;;
77214;SDS011;66210;53.282;9.864;2023-09-19T03:00:09;5.03;;;2.38;;
77214;SDS011;66210;53.282;9.864;2023-09-19T03:02:36;7.53;;;2.65;;
77214;SDS011;66210;53.282;9.864;2023-09-19T03:05:04;11.55;;;2.65;;
77214;SDS011;66210;53.282;9.864;2023-09-19T03:07:32;6.30;;;2.40;;
77214;SDS011;66210;53.282;9.864;2023-09-19T03:09:59;9.65;;;2.70;;
77214;SDS011;66210;53.282;9.864;2023-09-19T03:12:26;10.15;;;2.53;;
77214;SDS011;66210;53.282;9.864;2023-09-19T03:14:53;3.45;;;2.13;;
77214;SDS011;66210;53.282;9.864;2023-09-19T03:17:20;4.38;;;2.00;;
77214;SDS011;66210;53.282;9.864;2023-09-19T03:19:47;5.05;;;2.00;;
77214;SDS011;66210;53.282;9.864;2023-09-19T03:22:15;6.50;;;1.75;;
77214;SDS011;66210;53.282;9.864;2023-09-19T03:24:42;3.53;;;1.90;;
77214;SDS011;66210;53.282;9.864;2023-09-19T03:27:10;4.30;;;1.70;;
77214;SDS011;66210;53.282;9.864;2023-09-19T03:29:37;5.32;;;2.28;;
77214;SDS011;66210;53.282;9.864;2023-09-19T03:32:03;4.40;;;1.60;;
77214;SDS011;66210;53.282;9.864;2023-09-19T03:34:31;4.93;;;1.80;;
77214;SDS011;66210;53.282;9.864;2023-09-19T03:36:57;5.72;;;1.60;;
77214;SDS011;66210;53.282;9.864;2023-09-19T03:39:24;4.95;;;1.40;;
77214;SDS011;66210;53.282;9.864;2023-09-19T03:41:51;7.45;;;1.50;;
77214;SDS011;66210;53.282;9.864;2023-09-19T03:44:17;4.95;;;1.40;;
77214;SDS011;66210;53.282;9.864;2023-09-19T03:46:44;3.97;;;1.50;;
77214;SDS011;66210;53.282;9.864;2023-09-19T03:49:11;4.03;;;1.48;;
77214;SDS011;66210;53.282;9.864;2023-09-19T03:51:37;4.07;;;1.60;;
77214;SDS011;66210;53.282;9.864;2023-09-19T03:54:06;4.85;;;1.42;;
77214;SDS011;66210;53.282;9.864;2023-09-19T03:56:32;3.08;;;1.77;;
77214;SDS011;66210;53.282;9.864;2023-09-19T03:58:59;3.15;;;1.50;;
77214;SDS011;66210;53.282;9.864;2023-09-19T04:01:26;4.55;;;1.60;;
77214;SDS011;66210;53.282;9.864;2023-09-19T04:03:54;4.35;;;1.40;;
77214;SDS011;66210;53.282;9.864;2023-09-19T04:06:21;2.45;;;1.40;;
77214;SDS011;66210;53.282;9.864;2023-09-19T04:08:48;6.25;;;1.70;;
77214;SDS011;66210;53.282;9.864;2023-09-19T04:11:15;2.70;;;1.40;;
77214;SDS011;66210;53.282;9.864;2023-09-19T04:13:41;2.88;;;1.65;;
77214;SDS011;66210;53.282;9.864;2023-09-19T04:16:09;7.13;;;1.67;;
77214;SDS011;66210;53.282;9.864;2023-09-19T04:18:37;6.13;;;2.25;;
77214;SDS011;66210;53.282;9.864;2023-09-19T04:21:04;6.28;;;1.70;;
77214;SDS011;66210;53.282;9.864;2023-09-19T04:23:32;3.20;;;1.70;;
77214;SDS011;66210;53.282;9.864;2023-09-19T04:25:59;5.00;;;1.40;;
77214;SDS011;66210;53.282;9.864;2023-09-19T04:28:26;6.38;;;1.60;;
77214;SDS011;66210;53.282;9.864;2023-09-19T04:30:54;11.60;;;2.50;;
77214;SDS011;66210;53.282;9.864;2023-09-19T04:33:22;7.05;;;1.80;;
77214;SDS011;66210;53.282;9.864;2023-09-19T04:35:49;7.78;;;2.10;;
77214;SDS011;66210;53.282;9.864;2023-09-19T04:38:20;5.07;;;1.73;;
77214;SDS011;66210;53.282;9.864;2023-09-19T04:40:47;3.45;;;1.67;;
77214;SDS011;66210;53.282;9.864;2023-09-19T04:43:14;3.55;;;1.75;;
77214;SDS011;66210;53.282;9.864;2023-09-19T04:45:42;8.90;;;2.03;;
77214;SDS011;66210;53.282;9.864;2023-09-19T04:48:09;5.47;;;1.95;;
77214;SDS011;66210;53.282;9.864;2023-09-19T04:50:37;6.80;;;1.70;;
77214;SDS011;66210;53.282;9.864;2023-09-19T04:53:05;10.88;;;1.77;;
77214;SDS011;66210;53.282;9.864;2023-09-19T04:55:32;6.25;;;1.95;;
77214;SDS011;66210;53.282;9.864;2023-09-19T04:57:59;9.00;;;1.88;;
77214;SDS011;66210;53.282;9.864;2023-09-19T05:00:26;9.45;;;1.88;;
77214;SDS011;66210;53.282;9.864;2023-09-19T05:02:57;7.63;;;1.88;;
77214;SDS011;66210;53.282;9.864;2023-09-19T05:05:24;6.72;;;1.85;;
77214;SDS011;66210;53.282;9.864;2023-09-19T05:07:52;8.32;;;2.10;;
77214;SDS011;66210;53.282;9.864;2023-09-19T05:10:22;10.88;;;2.03;;
77214;SDS011;66210;53.282;9.864;2023-09-19T05:12:49;5.78;;;2.15;;
77214;SDS011;66210;53.282;9.864;2023-09-19T05:15:19;7.72;;;1.65;;
77214;SDS011;66210;53.282;9.864;2023-09-19T05:17:50;7.65;;;2.00;;
77214;SDS011;66210;53.282;9.864;2023-09-19T05:20:22;5.65;;;1.58;;
77214;SDS011;66210;53.282;9.864;2023-09-19T05:23:05;8.05;;;2.17;;
77214;SDS011;66210;53.282;9.864;2023-09-19T05:25:39;8.07;;;2.10;;
77214;SDS011;66210;53.282;9.864;2023-09-19T05:28:06;9.57;;;2.55;;
77214;SDS011;66210;53.282;9.864;2023-09-19T05:30:34;7.13;;;1.83;;
77214;SDS011;66210;53.282;9.864;2023-09-19T05:33:05;8.10;;;2.05;;
77214;SDS011;66210;53.282;9.864;2023-09-19T05:35:32;6.93;;;1.60;;
77214;SDS011;66210;53.282;9.864;2023-09-19T05:37:59;9.50;;;1.98;;
77214;SDS011;66210;53.282;9.864;2023-09-19T05:40:26;11.55;;;2.10;;
77214;SDS011;66210;53.282;9.864;2023-09-19T05:42:53;5.07;;;1.67;;
77214;SDS011;66210;53.282;9.864;2023-09-19T05:45:20;5.25;;;1.65;;
77214;SDS011;66210;53.282;9.864;2023-09-19T05:47:50;8.70;;;2.03;;
77214;SDS011;66210;53.282;9.864;2023-09-19T05:50:17;6.78;;;2.15;;
77214;SDS011;66210;53.282;9.864;2023-09-19T05:52:51;4.88;;;2.28;;
77214;SDS011;66210;53.282;9.864;2023-09-19T05:55:19;9.02;;;2.08;;
77214;SDS011;66210;53.282;9.864;2023-09-19T05:57:50;5.95;;;2.03;;
77214;SDS011;66210;53.282;9.864;2023-09-19T06:00:21;5.25;;;1.85;;
77214;SDS011;66210;53.282;9.864;2023-09-19T06:02:56;6.93;;;2.40;;
77214;SDS011;66210;53.282;9.864;2023-09-19T06:05:24;7.20;;;2.20;;
77214;SDS011;66210;53.282;9.864;2023-09-19T06:07:58;8.90;;;2.55;;
77214;SDS011;66210;53.282;9.864;2023-09-19T06:10:34;7.10;;;2.20;;
77214;SDS011;66210;53.282;9.864;2023-09-19T06:13:02;6.70;;;2.38;;
77214;SDS011;66210;53.282;9.864;2023-09-19T06:15:32;11.25;;;2.33;;
77214;SDS011;66210;53.282;9.864;2023-09-19T06:17:59;7.50;;;2.35;;
77214;SDS011;66210;53.282;9.864;2023-09-19T06:20:28;5.60;;;2.22;;
77214;SDS011;66210;53.282;9.864;2023-09-19T06:22:56;12.85;;;2.30;;
77214;SDS011;66210;53.282;9.864;2023-09-19T06:25:23;12.35;;;2.50;;
77214;SDS011;66210;53.282;9.864;2023-09-19T06:27:50;10.00;;;2.53;;
77214;SDS011;66210;53.282;9.864;2023-09-19T06:30:20;11.05;;;2.30;;
77214;SDS011;66210;53.282;9.864;2023-09-19T06:32:48;6.72;;;2.60;;
77214;SDS011;66210;53.282;9.864;2023-09-19T06:35:16;9.57;;;2.60;;
77214;SDS011;66210;53.282;9.864;2023-09-19T06:37:43;8.00;;;2.10;;
77214;SDS011;66210;53.282;9.864;2023-09-19T06:40:10;9.23;;;2.60;;
77214;SDS011;66210;53.282;9.864;2023-09-19T06:42:44;12.32;;;2.40;;
77214;SDS011;66210;53.282;9.864;2023-09-19T06:45:12;12.95;;;3.25;;
77214;SDS011;66210;53.282;9.864;2023-09-19T06:47:44;10.48;;;2.55;;
77214;SDS011;66210;53.282;9.864;2023-09-19T06:50:12;6.63;;;2.42;;
77214;SDS011;66210;53.282;9.864;2023-09-19T06:52:42;14.45;;;2.78;;
77214;SDS011;66210;53.282;9.864;2023-09-19T06:55:12;11.95;;;2.50;;
77214;SDS011;66210;53.282;9.864;2023-09-19T06:57:39;9.65;;;2.42;;
77214;SDS011;66210;53.282;9.864;2023-09-19T07:00:11;9.18;;;2.40;;
77214;SDS011;66210;53.282;9.864;2023-09-19T07:02:54;13.30;;;2.60;;
77214;SDS011;66210;53.282;9.864;2023-09-19T07:05:28;9.35;;;2.33;;
77214;SDS011;66210;53.282;9.864;2023-09-19T07:07:55;9.57;;;2.28;;
77214;SDS011;66210;53.282;9.864;2023-09-19T07:10:22;16.80;;;2.65;;
77214;SDS011;66210;53.282;9.864;2023-09-19T07:12:59;15.70;;;3.75;;
77214;SDS011;66210;53.282;9.864;2023-09-19T07:15:32;9.38;;;2.70;;
77214;SDS011;66210;53.282;9.864;2023-09-19T07:18:05;10.48;;;2.83;;
77214;SDS011;66210;53.282;9.864;2023-09-19T07:20:33;9.55;;;2.50;;
77214;SDS011;66210;53.282;9.864;2023-09-19T07:23:02;7.85;;;2.65;;
77214;SDS011;66210;53.282;9.864;2023-09-19T07:25:35;13.90;;;2.58;;
77214;SDS011;66210;53.282;9.864;2023-09-19T07:28:14;8.60;;;2.22;;
77214;SDS011;66210;53.282;9.864;2023-09-19T07:30:49;14.68;;;2.80;;
77214;SDS011;66210;53.282;9.864;2023-09-19T07:33:16;12.55;;;3.60;;
77214;SDS011;66210;53.282;9.864;2023-09-19T07:35:46;10.35;;;2.53;;
77214;SDS011;66210;53.282;9.864;2023-09-19T07:38:13;17.73;;;2.75;;
77214;SDS011;66210;53.282;9.864;2023-09-19T07:40:40;12.77;;;2.67;;
77214;SDS011;66210;53.282;9.864;2023-09-19T07:43:07;11.75;;;2.50;;
77214;SDS011;66210;53.282;9.864;2023-09-19T07:45:35;8.48;;;2.53;;
77214;SDS011;66210;53.282;9.864;2023-09-19T07:48:03;10.18;;;2.45;;
77214;SDS011;66210;53.282;9.864;2023-09-19T07:50:33;12.68;;;3.08;;
77214;SDS011;66210;53.282;9.864;2023-09-19T07:53:03;10.65;;;2.38;;
77214;SDS011;66210;53.282;9.864;2023-09-19T07:55:31;14.85;;;2.60;;
77214;SDS011;66210;53.282;9.864;2023-09-19T07:58:01;9.02;;;2.55;;
77214;SDS011;66210;53.282;9.864;2023-09-19T08:00:30;13.60;;;2.60;;
77214;SDS011;66210;53.282;9.864;2023-09-19T08:02:59;13.18;;;2.70;;
77214;SDS011;66210;53.282;9.864;2023-09-19T08:05:34;10.00;;;2.38;;
77214;SDS011;66210;53.282;9.864;2023-09-19T08:10:36;10.73;;;2.58;;
77214;SDS011;66210;53.282;9.864;2023-09-19T08:13:08;12.20;;;2.30;;
77214;SDS011;66210;53.282;9.864;2023-09-19T08:16:04;9.57;;;2.67;;
77214;SDS011;66210;53.282;9.864;2023-09-19T08:18:31;11.43;;;2.50;;
77214;SDS011;66210;53.282;9.864;2023-09-19T08:21:06;16.00;;;2.97;;
77214;SDS011;66210;53.282;9.864;2023-09-19T08:23:39;11.88;;;2.33;;
77214;SDS011;66210;53.282;9.864;2023-09-19T08:26:08;7.22;;;2.40;;
77214;SDS011;66210;53.282;9.864;2023-09-19T08:28:43;8.55;;;2.40;;
77214;SDS011;66210;53.282;9.864;2023-09-19T08:31:10;13.57;;;2.60;;
77214;SDS011;66210;53.282;9.864;2023-09-19T08:33:39;7.97;;;2.08;;
77214;SDS011;66210;53.282;9.864;2023-09-19T08:36:07;12.48;;;2.10;;
77214;SDS011;66210;53.282;9.864;2023-09-19T08:38:36;9.23;;;2.22;;
77214;SDS011;66210;53.282;9.864;2023-09-19T08:41:07;10.23;;;2.28;;
77214;SDS011;66210;53.282;9.864;2023-09-19T08:43:35;11.02;;;3.33;;
77214;SDS011;66210;53.282;9.864;2023-09-19T08:46:06;10.38;;;2.15;;
77214;SDS011;66210;53.282;9.864;2023-09-19T08:48:45;6.30;;;2.05;;
77214;SDS011;66210;53.282;9.864;2023-09-19T08:51:30;8.60;;;2.17;;
77214;SDS011;66210;53.282;9.864;2023-09-19T08:54:07;10.13;;;2.08;;
77214;SDS011;66210;53.282;9.864;2023-09-19T08:56:34;8.90;;;2.20;;
77214;SDS011;66210;53.282;9.864;2023-09-19T08:59:03;7.57;;;1.88;;
77214;SDS011;66210;53.282;9.864;2023-09-19T09:01:34;10.20;;;2.17;;
77214;SDS011;66210;53.282;9.864;2023-09-19T09:04:06;8.80;;;2.25;;
77214;SDS011;66210;53.282;9.864;2023-09-19T09:06:35;10.05;;;2.10;;
77214;SDS011;66210;53.282;9.864;2023-09-19T09:09:04;11.57;;;2.70;;
77214;SDS011;66210;53.282;9.864;2023-09-19T09:11:32;10.50;;;2.08;;
77214;SDS011;66210;53.282;9.864;2023-09-19T09:14:00;10.00;;;2.38;;
77214;SDS011;66210;53.282;9.864;2023-09-19T09:16:28;10.30;;;2.28;;
77214;SDS011;66210;53.282;9.864;2023-09-19T09:18:56;7.60;;;1.80;;
77214;SDS011;66210;53.282;9.864;2023-09-19T09:21:26;7.95;;;2.20;;
77214;SDS011;66210;53.282;9.864;2023-09-19T09:23:54;8.88;;;2.20;;
77214;SDS011;66210;53.282;9.864;2023-09-19T09:29:03;4.75;;;1.83;;
77214;SDS011;66210;53.282;9.864;2023-09-19T09:31:30;8.27;;;1.92;;
77214;SDS011;66210;53.282;9.864;2023-09-19T09:33:58;6.90;;;2.28;;
77214;SDS011;66210;53.282;9.864;2023-09-19T09:36:38;7.43;;;2.15;;
77214;SDS011;66210;53.282;9.864;2023-09-19T09:39:07;11.57;;;2.00;;
77214;SDS011;66210;53.282;9.864;2023-09-19T09:41:51;9.38;;;2.22;;
77214;SDS011;66210;53.282;9.864;2023-09-19T09:44:18;9.07;;;2.10;;
77214;SDS011;66210;53.282;9.864;2023-09-19T09:46:46;6.65;;;1.95;;
77214;SDS011;66210;53.282;9.864;2023-09-19T09:49:24;9.52;;;1.92;;
77214;SDS011;66210;53.282;9.864;2023-09-19T09:51:59;8.52;;;1.92;;
77214;SDS011;66210;53.282;9.864;2023-09-19T09:54:37;9.43;;;2.05;;
77214;SDS011;66210;53.282;9.864;2023-09-19T09:57:08;10.32;;;2.13;;
77214;SDS011;66210;53.282;9.864;2023-09-19T09:59:50;7.07;;;2.00;;
77214;SDS011;66210;53.282;9.864;2023-09-19T10:04:56;7.40;;;1.90;;
77214;SDS011;66210;53.282;9.864;2023-09-19T10:07:49;5.35;;;1.92;;
77214;SDS011;66210;53.282;9.864;2023-09-19T10:10:32;8.40;;;2.25;;
77214;SDS011;66210;53.282;9.864;2023-09-19T10:13:09;11.55;;;2.35;;
77214;SDS011;66210;53.282;9.864;2023-09-19T10:15:42;8.30;;;2.00;;
77214;SDS011;66210;53.282;9.864;2023-09-19T10:20:47;7.80;;;2.25;;
77214;SDS011;66210;53.282;9.864;2023-09-19T10:23:18;10.23;;;2.22;;
77214;SDS011;66210;53.282;9.864;2023-09-19T10:25:50;6.43;;;1.98;;
77214;SDS011;66210;53.282;9.864;2023-09-19T10:28:17;8.93;;;2.22;;
77214;SDS011;66210;53.282;9.864;2023-09-19T10:30:49;9.18;;;2.92;;
77214;SDS011;66210;53.282;9.864;2023-09-19T10:33:22;7.75;;;2.50;;
77214;SDS011;66210;53.282;9.864;2023-09-19T10:35:53;7.63;;;2.00;;
77214;SDS011;66210;53.282;9.864;2023-09-19T10:38:23;6.85;;;2.47;;
77214;SDS011;66210;53.282;9.864;2023-09-19T10:40:52;11.07;;;2.38;;
77214;SDS011;66210;53.282;9.864;2023-09-19T10:43:21;7.57;;;1.95;;
77214;SDS011;66210;53.282;9.864;2023-09-19T10:45:52;10.55;;;2.17;;
77214;SDS011;66210;53.282;9.864;2023-09-19T10:48:23;6.97;;;2.05;;
77214;SDS011;66210;53.282;9.864;2023-09-19T10:51:09;10.02;;;2.10;;
77214;SDS011;66210;53.282;9.864;2023-09-19T10:56:09;8.40;;;2.00;;
77214;SDS011;66210;53.282;9.864;2023-09-19T10:58:44;6.72;;;1.92;;
77214;SDS011;66210;53.282;9.864;2023-09-19T11:01:11;6.47;;;1.65;;
77214;SDS011;66210;53.282;9.864;2023-09-19T11:03:39;6.13;;;2.08;;
77214;SDS011;66210;53.282;9.864;2023-09-19T11:06:14;7.53;;;1.98;;
77214;SDS011;66210;53.282;9.864;2023-09-19T11:11:45;6.85;;;1.98;;
77214;SDS011;66210;53.282;9.864;2023-09-19T11:30:36;5.78;;;1.88;;
77214;SDS011;66210;53.282;9.864;2023-09-19T11:36:08;8.50;;;2.03;;
77214;SDS011;66210;53.282;9.864;2023-09-19T11:43:47;11.95;;;2.38;;
77214;SDS011;66210;53.282;9.864;2023-09-19T11:46:14;10.65;;;2.60;;
77214;SDS011;66210;53.282;9.864;2023-09-19T11:48:48;10.55;;;2.42;;
77214;SDS011;66210;53.282;9.864;2023-09-19T11:51:19;9.05;;;2.13;;
77214;SDS011;66210;53.282;9.864;2023-09-19T11:53:53;9.32;;;2.38;;
77214;SDS011;66210;53.282;9.864;2023-09-19T11:56:22;7.70;;;2.20;;
77214;SDS011;66210;53.282;9.864;2023-09-19T11:58:51;11.80;;;2.30;;
77214;SDS011;66210;53.282;9.864;2023-09-19T12:03:58;11.18;;;2.30;;
77214;SDS011;66210;53.282;9.864;2023-09-19T12:06:26;14.15;;;2.60;;
77214;SDS011;66210;53.282;9.864;2023-09-19T12:08:56;8.10;;;2.17;;
77214;SDS011;66210;53.282;9.864;2023-09-19T12:11:29;9.73;;;2.72;;
77214;SDS011;66210;53.282;9.864;2023-09-19T12:14:01;7.47;;;2.25;;
77214;SDS011;66210;53.282;9.864;2023-09-19T12:16:28;7.60;;;2.60;;
77214;SDS011;66210;53.282;9.864;2023-09-19T12:19:17;12.15;;;2.63;;
77214;SDS011;66210;53.282;9.864;2023-09-19T12:21:54;10.00;;;2.42;;
77214;SDS011;66210;53.282;9.864;2023-09-19T12:24:27;8.88;;;2.58;;
77214;SDS011;66210;53.282;9.864;2023-09-19T12:27:00;12.90;;;2.65;;
77214;SDS011;66210;53.282;9.864;2023-09-19T12:29:31;8.38;;;2.17;;
77214;SDS011;66210;53.282;9.864;2023-09-19T12:32:07;11.02;;;2.88;;
77214;SDS011;66210;53.282;9.864;2023-09-19T12:34:35;7.55;;;2.10;;
77214;SDS011;66210;53.282;9.864;2023-09-19T12:39:40;8.73;;;2.20;;
77214;SDS011;66210;53.282;9.864;2023-09-19T12:42:22;8.18;;;2.13;;
77214;SDS011;66210;53.282;9.864;2023-09-19T12:44:50;6.50;;;2.08;;
77214;SDS011;66210;53.282;9.864;2023-09-19T12:47:28;12.20;;;3.20;;
77214;SDS011;66210;53.282;9.864;2023-09-19T12:52:41;9.25;;;2.22;;
77214;SDS011;66210;53.282;9.864;2023-09-19T12:55:19;9.40;;;2.40;;
77214;SDS011;66210;53.282;9.864;2023-09-19T13:00:33;11.35;;;2.65;;
77214;SDS011;66210;53.282;9.864;2023-09-19T13:05:58;8.52;;;2.13;;
77214;SDS011;66210;53.282;9.864;2023-09-19T13:08:28;8.63;;;2.38;;
77214;SDS011;66210;53.282;9.864;2023-09-19T13:11:11;12.15;;;2.53;;
77214;SDS011;66210;53.282;9.864;2023-09-19T13:13:40;12.23;;;2.53;;
77214;SDS011;66210;53.282;9.864;2023-09-19T13:16:16;10.27;;;2.65;;
77214;SDS011;66210;53.282;9.864;2023-09-19T13:18:49;7.82;;;2.55;;
77214;SDS011;66210;53.282;9.864;2023-09-19T13:21:30;12.93;;;2.15;;
77214;SDS011;66210;53.282;9.864;2023-09-19T13:24:19;15.23;;;2.58;;
77214;SDS011;66210;53.282;9.864;2023-09-19T13:26:54;13.05;;;2.55;;
77214;SDS011;66210;53.282;9.864;2023-09-19T13:29:22;8.10;;;2.35;;
77214;SDS011;66210;53.282;9.864;2023-09-19T13:31:49;14.07;;;2.58;;
77214;SDS011;66210;53.282;9.864;2023-09-19T13:34:19;7.45;;;2.20;;
77214;SDS011;66210;53.282;9.864;2023-09-19T13:36:47;9.38;;;2.30;;
77214;SDS011;66210;53.282;9.864;2023-09-19T13:39:15;8.23;;;2.40;;
77214;SDS011;66210;53.282;9.864;2023-09-19T13:41:47;13.27;;;2.72;;
77214;SDS011;66210;53.282;9.864;2023-09-19T13:44:14;5.85;;;2.00;;
77214;SDS011;66210;53.282;9.864;2023-09-19T13:46:43;8.07;;;2.38;;
77214;SDS011;66210;53.282;9.864;2023-09-19T13:49:13;6.43;;;2.50;;
77214;SDS011;66210;53.282;9.864;2023-09-19T13:51:40;8.32;;;2.22;;
77214;SDS011;66210;53.282;9.864;2023-09-19T13:54:11;8.15;;;2.03;;
77214;SDS011;66210;53.282;9.864;2023-09-19T13:56:41;6.95;;;2.65;;
77214;SDS011;66210;53.282;9.864;2023-09-19T13:59:07;9.27;;;2.35;;
77214;SDS011;66210;53.282;9.864;2023-09-19T14:01:34;7.88;;;2.33;;
77214;SDS011;66210;53.282;9.864;2023-09-19T14:04:01;10.50;;;2.90;;
77214;SDS011;66210;53.282;9.864;2023-09-19T14:06:29;15.60;;;3.05;;
77214;SDS011;66210;53.282;9.864;2023-09-19T14:08:56;6.50;;;2.05;;
77214;SDS011;66210;53.282;9.864;2023-09-19T14:11:22;7.97;;;2.28;;
77214;SDS011;66210;53.282;9.864;2023-09-19T14:13:49;11.18;;;2.50;;
77214;SDS011;66210;53.282;9.864;2023-09-19T14:16:16;9.20;;;2.53;;
77214;SDS011;66210;53.282;9.864;2023-09-19T14:18:45;8.52;;;2.20;;
77214;SDS011;66210;53.282;9.864;2023-09-19T14:21:13;10.32;;;2.60;;
77214;SDS011;66210;53.282;9.864;2023-09-19T14:23:41;8.40;;;2.50;;
77214;SDS011;66210;53.282;9.864;2023-09-19T14:26:10;8.48;;;2.47;;
77214;SDS011;66210;53.282;9.864;2023-09-19T14:28:37;6.50;;;2.30;;
77214;SDS011;66210;53.282;9.864;2023-09-19T14:31:06;10.55;;;2.25;;
77214;SDS011;66210;53.282;9.864;2023-09-19T14:33:37;10.18;;;2.53;;
77214;SDS011;66210;53.282;9.864;2023-09-19T14:36:05;8.48;;;2.28;;
77214;SDS011;66210;53.282;9.864;2023-09-19T14:38:36;7.82;;;2.67;;
77214;SDS011;66210;53.282;9.864;2023-09-19T14:41:04;10.20;;;2.25;;
77214;SDS011;66210;53.282;9.864;2023-09-19T14:43:32;8.45;;;2.60;;
77214;SDS011;66210;53.282;9.864;2023-09-19T14:46:03;9.63;;;2.55;;
77214;SDS011;66210;53.282;9.864;2023-09-19T14:48:37;10.70;;;2.70;;
77214;SDS011;66210;53.282;9.864;2023-09-19T14:51:05;9.10;;;2.85;;
77214;SDS011;66210;53.282;9.864;2023-09-19T14:53:33;6.40;;;2.22;;
77214;SDS011;66210;53.282;9.864;2023-09-19T14:56:00;12.52;;;2.50;;
77214;SDS011;66210;53.282;9.864;2023-09-19T14:58:30;13.48;;;2.75;;
77214;SDS011;66210;53.282;9.864;2023-09-19T15:01:07;11.10;;;3.03;;
77214;SDS011;66210;53.282;9.864;2023-09-19T15:03:36;6.07;;;2.30;;
77214;SDS011;66210;53.282;9.864;2023-09-19T15:06:09;9.32;;;2.60;;
77214;SDS011;66210;53.282;9.864;2023-09-19T15:08:46;8.43;;;2.50;;
77214;SDS011;66210;53.282;9.864;2023-09-19T15:11:16;9.65;;;2.53;;
77214;SDS011;66210;53.282;9.864;2023-09-19T15:13:44;11.55;;;3.40;;
77214;SDS011;66210;53.282;9.864;2023-09-19T15:16:12;13.48;;;3.10;;
77214;SDS011;66210;53.282;9.864;2023-09-19T15:18:41;10.25;;;2.65;;
77214;SDS011;66210;53.282;9.864;2023-09-19T15:21:09;10.95;;;3.20;;
77214;SDS011;66210;53.282;9.864;2023-09-19T15:23:37;9.18;;;2.63;;
77214;SDS011;66210;53.282;9.864;2023-09-19T15:26:05;12.23;;;2.95;;
77214;SDS011;66210;53.282;9.864;2023-09-19T15:28:34;8.57;;;2.70;;
77214;SDS011;66210;53.282;9.864;2023-09-19T15:31:02;8.82;;;2.60;;
77214;SDS011;66210;53.282;9.864;2023-09-19T15:33:30;9.02;;;2.53;;
77214;SDS011;66210;53.282;9.864;2023-09-19T15:36:04;7.43;;;2.53;;
77214;SDS011;66210;53.282;9.864;2023-09-19T15:38:31;12.35;;;2.90;;
77214;SDS011;66210;53.282;9.864;2023-09-19T15:41:20;5.85;;;2.47;;
77214;SDS011;66210;53.282;9.864;2023-09-19T15:43:47;9.02;;;2.78;;
77214;SDS011;66210;53.282;9.864;2023-09-19T15:46:14;6.68;;;2.40;;
77214;SDS011;66210;53.282;9.864;2023-09-19T15:48:42;4.65;;;2.05;;
77214;SDS011;66210;53.282;9.864;2023-09-19T15:51:08;7.45;;;2.55;;
77214;SDS011;66210;53.282;9.864;2023-09-19T15:53:43;8.35;;;2.55;;
77214;SDS011;66210;53.282;9.864;2023-09-19T15:56:15;8.05;;;2.50;;
77214;SDS011;66210;53.282;9.864;2023-09-19T15:58:46;5.35;;;2.15;;
77214;SDS011;66210;53.282;9.864;2023-09-19T16:01:14;7.78;;;2.42;;
77214;SDS011;66210;53.282;9.864;2023-09-19T16:03:48;10.05;;;2.72;;
77214;SDS011;66210;53.282;9.864;2023-09-19T16:06:21;6.07;;;2.30;;